createdAt,value
2018-01-31T01:53:24.869Z,15.00
2018-01-31T01:55:52.659Z,15.00
2018-01-31T01:58:21.202Z,14.90
2018-01-31T02:00:49.024Z,14.90
2018-01-31T02:03:17.571Z,14.90
2018-01-31T02:05:45.437Z,14.90
2018-01-31T02:08:13.290Z,14.90
2018-01-31T02:10:41.099Z,14.90
2018-01-31T02:13:09.707Z,14.90
2018-01-31T02:15:37.562Z,14.90
2018-01-31T02:18:05.411Z,14.90
2018-01-31T02:20:34.091Z,14.90
2018-01-31T02:23:02.699Z,14.80
2018-01-31T02:25:30.530Z,14.80
2018-01-31T02:27:59.087Z,14.90
2018-01-31T02:30:26.905Z,14.90
2018-01-31T02:32:54.769Z,14.80
2018-01-31T02:35:22.647Z,14.90
2018-01-31T02:37:50.455Z,14.90
2018-01-31T02:40:18.334Z,14.80
2018-01-31T02:42:46.968Z,14.90
2018-01-31T02:45:14.784Z,14.90
2018-01-31T02:47:42.571Z,14.90
2018-01-31T02:50:11.127Z,14.80
2018-01-31T02:52:38.984Z,14.80
2018-01-31T02:55:06.794Z,14.80
2018-01-31T02:57:34.570Z,14.80
2018-01-31T03:00:02.354Z,14.80
2018-01-31T03:02:30.163Z,14.80
2018-01-31T03:04:57.968Z,14.80
2018-01-31T03:07:25.768Z,14.80
2018-01-31T03:09:53.595Z,14.80
2018-01-31T03:12:21.370Z,14.80
2018-01-31T03:14:49.250Z,14.70
2018-01-31T03:17:17.118Z,14.70
2018-01-31T03:19:44.960Z,14.70
2018-01-31T03:22:12.788Z,14.70
2018-01-31T03:24:41.371Z,14.70
2018-01-31T03:27:09.951Z,14.60
2018-01-31T03:29:37.797Z,14.60
2018-01-31T03:32:05.729Z,14.60
2018-01-31T03:34:33.527Z,14.70
2018-01-31T03:37:01.386Z,14.60
2018-01-31T03:39:29.282Z,14.70
2018-01-31T03:41:58.854Z,14.70
2018-01-31T03:44:26.704Z,14.70
2018-01-31T03:46:54.557Z,14.70
2018-01-31T03:49:22.350Z,14.70
2018-01-31T03:51:50.179Z,14.70
2018-01-31T03:54:17.965Z,14.70
2018-01-31T03:56:45.755Z,14.70
2018-01-31T03:59:13.569Z,14.70
2018-01-31T04:01:42.243Z,14.70
2018-01-31T04:04:10.803Z,14.70
2018-01-31T04:06:38.622Z,14.70
2018-01-31T04:09:06.448Z,14.70
2018-01-31T04:11:35.043Z,14.70
2018-01-31T04:14:03.602Z,14.80
2018-01-31T04:16:31.408Z,14.70
2018-01-31T04:18:59.311Z,14.70
2018-01-31T04:21:27.234Z,14.70
2018-01-31T04:23:55.038Z,14.80
2018-01-31T04:26:22.836Z,14.70
2018-01-31T04:28:50.652Z,14.70
2018-01-31T04:31:18.455Z,14.70
2018-01-31T04:33:46.267Z,14.70
2018-01-31T04:36:14.055Z,14.70
2018-01-31T04:38:41.851Z,14.60
2018-01-31T04:41:09.679Z,14.70
2018-01-31T04:43:37.623Z,14.70
2018-01-31T04:46:05.443Z,14.70
2018-01-31T04:48:33.299Z,14.70
2018-01-31T04:51:01.106Z,14.70
2018-01-31T04:53:29.719Z,14.70
2018-01-31T04:55:57.566Z,14.60
2018-01-31T04:58:25.376Z,14.60
2018-01-31T05:00:53.191Z,14.60
2018-01-31T05:03:20.991Z,14.60
2018-01-31T05:05:48.770Z,14.60
2018-01-31T05:08:16.575Z,14.60
2018-01-31T05:10:45.120Z,14.70
2018-01-31T05:13:12.966Z,14.60
2018-01-31T05:15:40.759Z,14.60
2018-01-31T05:18:08.591Z,14.60
2018-01-31T05:20:36.507Z,14.60
2018-01-31T05:23:05.201Z,14.60
2018-01-31T05:25:33.786Z,14.60
2018-01-31T05:28:02.364Z,14.60
2018-01-31T05:30:31.008Z,14.60
2018-01-31T05:32:58.895Z,14.60
2018-01-31T05:35:26.682Z,14.60
2018-01-31T05:37:55.259Z,14.60
2018-01-31T05:40:23.840Z,14.60
2018-01-31T05:42:51.715Z,14.60
2018-01-31T05:45:20.279Z,14.50
2018-01-31T05:47:48.140Z,14.50
2018-01-31T05:50:16.038Z,14.50
2018-01-31T05:52:43.856Z,14.50
2018-01-31T05:55:11.656Z,14.50
2018-01-31T05:57:39.487Z,14.50
2018-01-31T06:00:07.351Z,14.50
2018-01-31T06:02:35.155Z,14.50
2018-01-31T06:05:03.850Z,14.50
2018-01-31T06:07:31.642Z,14.50
2018-01-31T06:09:59.487Z,14.50
2018-01-31T06:12:27.299Z,14.50
2018-01-31T06:14:55.075Z,14.50
2018-01-31T06:17:22.879Z,14.50
2018-01-31T06:19:51.429Z,14.50
2018-01-31T06:22:19.278Z,14.50
2018-01-31T06:24:47.099Z,14.60
2018-01-31T06:27:14.931Z,14.60
2018-01-31T06:29:42.755Z,14.60
2018-01-31T06:32:10.560Z,14.50
2018-01-31T06:34:38.398Z,14.60
2018-01-31T06:37:06.228Z,14.50
2018-01-31T06:39:34.058Z,14.50
2018-01-31T06:42:01.866Z,14.50
2018-01-31T06:44:29.761Z,14.50
2018-01-31T06:46:57.556Z,14.50
2018-01-31T06:49:25.343Z,14.40
2018-01-31T06:51:53.956Z,14.40
2018-01-31T06:54:21.780Z,14.40
2018-01-31T06:56:50.333Z,14.40
2018-01-31T06:59:18.123Z,14.40
2018-01-31T07:01:46.675Z,14.40
2018-01-31T07:04:14.515Z,14.40
2018-01-31T07:06:42.404Z,14.40
2018-01-31T07:09:10.226Z,14.40
2018-01-31T07:11:38.135Z,14.40
2018-01-31T07:14:06.005Z,14.30
2018-01-31T07:16:33.792Z,14.30
2018-01-31T07:19:01.614Z,14.30
2018-01-31T07:21:29.416Z,14.40
2018-01-31T07:23:57.263Z,14.40
2018-01-31T07:26:25.130Z,14.30
2018-01-31T07:28:53.006Z,14.30
2018-01-31T07:31:20.847Z,14.40
2018-01-31T07:33:48.647Z,14.40
2018-01-31T07:36:16.469Z,14.40
2018-01-31T07:38:44.288Z,14.40
2018-01-31T07:41:12.843Z,14.40
2018-01-31T07:43:40.612Z,14.40
2018-01-31T07:46:08.472Z,14.40
2018-01-31T07:48:36.255Z,14.40
2018-01-31T07:51:04.077Z,14.50
2018-01-31T07:53:31.922Z,14.50
2018-01-31T07:55:59.811Z,14.50
2018-01-31T07:58:27.633Z,14.50
2018-01-31T08:00:56.243Z,14.50
2018-01-31T08:03:24.065Z,14.50
2018-01-31T08:05:51.879Z,14.50
2018-01-31T08:08:19.679Z,14.50
2018-01-31T08:10:47.495Z,14.50
2018-01-31T08:13:15.363Z,14.50
2018-01-31T08:15:43.181Z,14.60
2018-01-31T08:18:10.983Z,14.60
2018-01-31T08:20:39.553Z,14.60
2018-01-31T08:23:08.140Z,14.70
2018-01-31T08:25:36.691Z,14.70
2018-01-31T08:28:04.488Z,14.70
2018-01-31T08:30:33.071Z,14.80
2018-01-31T08:33:00.978Z,14.70
2018-01-31T08:35:28.774Z,14.80
2018-01-31T08:37:56.625Z,14.80
2018-01-31T08:40:24.451Z,14.80
2018-01-31T08:42:52.235Z,14.90
2018-01-31T08:45:20.023Z,14.90
2018-01-31T08:47:47.832Z,14.90
2018-01-31T08:50:16.411Z,15.00
2018-01-31T08:52:44.971Z,15.00
2018-01-31T08:55:13.547Z,15.10
2018-01-31T08:57:41.344Z,15.10
2018-01-31T09:00:09.915Z,15.10
2018-01-31T09:02:38.494Z,15.20
2018-01-31T09:05:07.127Z,15.20
2018-01-31T09:07:34.946Z,15.20
2018-01-31T09:10:03.626Z,15.20
2018-01-31T09:12:32.195Z,15.20
2018-01-31T09:14:59.979Z,15.20
2018-01-31T09:17:27.815Z,15.10
2018-01-31T09:19:55.590Z,15.20
2018-01-31T09:22:23.447Z,15.20
2018-01-31T09:24:51.294Z,15.20
2018-01-31T09:27:19.113Z,15.30
2018-01-31T09:29:47.802Z,15.30
2018-01-31T09:32:15.657Z,15.30
2018-01-31T09:34:44.220Z,15.30
2018-01-31T09:37:12.091Z,15.30
2018-01-31T09:39:39.907Z,15.30
2018-01-31T09:42:08.491Z,15.40
2018-01-31T09:44:36.290Z,15.30
2018-01-31T09:47:04.156Z,15.40
2018-01-31T09:49:32.098Z,15.40
2018-01-31T09:51:59.967Z,15.40
2018-01-31T09:54:27.823Z,15.40
2018-01-31T09:56:55.630Z,15.30
2018-01-31T09:59:23.433Z,15.40
2018-01-31T10:01:51.215Z,15.40
2018-01-31T10:04:19.039Z,15.40
2018-01-31T10:06:46.851Z,15.40
2018-01-31T10:09:14.655Z,15.50
2018-01-31T10:11:42.436Z,15.50
2018-01-31T10:14:10.291Z,15.50
2018-01-31T10:16:38.169Z,15.60
2018-01-31T10:19:06.742Z,15.70
2018-01-31T10:21:34.523Z,15.60
2018-01-31T10:24:03.084Z,15.70
2018-01-31T10:26:31.006Z,15.70
2018-01-31T10:28:58.896Z,15.80
2018-01-31T10:31:26.680Z,15.80
2018-01-31T10:33:54.506Z,15.80
2018-01-31T10:36:22.295Z,15.90
2018-01-31T10:38:50.075Z,15.90
2018-01-31T10:41:17.881Z,15.90
2018-01-31T10:43:45.694Z,15.90
2018-01-31T10:46:13.475Z,15.90
2018-01-31T10:48:41.293Z,16.00
2018-01-31T10:51:09.143Z,15.90
2018-01-31T10:58:32.794Z,16.00
2018-01-31T11:01:00.643Z,16.10
2018-01-31T11:03:28.528Z,16.30
2018-01-31T11:05:56.324Z,16.30
2018-01-31T11:08:24.099Z,16.40
2018-01-31T11:10:52.719Z,16.50
2018-01-31T11:13:20.554Z,16.50
2018-01-31T11:15:48.344Z,16.50
2018-01-31T11:18:16.123Z,16.60
2018-01-31T11:20:44.077Z,16.60
2018-01-31T11:23:11.904Z,16.60
2018-01-31T11:25:39.714Z,16.60
2018-01-31T11:28:07.587Z,16.50
2018-01-31T11:30:35.458Z,16.50
2018-01-31T11:33:03.285Z,16.50
2018-01-31T11:35:31.075Z,16.50
2018-01-31T11:37:59.030Z,16.50
2018-01-31T11:40:26.919Z,16.50
2018-01-31T11:42:54.739Z,16.60
2018-01-31T11:45:22.551Z,16.70
2018-01-31T11:47:50.392Z,16.90
2018-01-31T11:50:18.258Z,17.00
2018-01-31T11:52:46.112Z,17.10
2018-01-31T11:55:13.911Z,17.20
2018-01-31T11:57:41.723Z,17.30
2018-01-31T12:00:10.380Z,17.50
2018-01-31T12:02:38.173Z,17.50
2018-01-31T12:05:06.870Z,17.60
2018-01-31T12:07:34.762Z,17.60
2018-01-31T12:10:02.626Z,17.60
2018-01-31T12:12:42.244Z,17.70
2018-01-31T12:15:21.911Z,17.70
2018-01-31T12:17:49.735Z,17.80
2018-01-31T12:20:30.159Z,17.80
2018-01-31T12:23:09.771Z,17.80
2018-01-31T12:25:49.455Z,17.90
2018-01-31T12:28:28.992Z,17.80
2018-01-31T12:31:08.668Z,17.90
2018-01-31T12:33:49.015Z,17.90
2018-01-31T12:36:29.438Z,18.00
2018-01-31T12:38:59.603Z,17.90
2018-01-31T12:41:27.646Z,17.90
2018-01-31T12:43:54.939Z,18.00
2018-01-31T12:46:34.587Z,18.00
2018-01-31T12:49:17.297Z,18.00
2018-01-31T12:51:56.825Z,18.00
2018-01-31T12:54:34.443Z,18.00
2018-01-31T12:57:14.319Z,18.00
2018-01-31T13:00:06.688Z,18.10
2018-01-31T13:05:54.856Z,18.00
2018-01-31T13:08:34.565Z,18.00
2018-01-31T13:11:28.008Z,18.00
2018-01-31T13:14:07.625Z,18.00
2018-01-31T13:16:48.102Z,18.00
2018-01-31T13:19:18.855Z,18.00
2018-01-31T13:21:58.373Z,18.00
2018-01-31T13:24:38.062Z,17.90
2018-01-31T13:27:27.248Z,17.90
2018-01-31T13:30:06.851Z,17.90
2018-01-31T13:32:46.498Z,17.80
2018-01-31T13:35:26.191Z,17.90
2018-01-31T13:38:11.735Z,17.90
2018-01-31T13:40:51.376Z,17.80
2018-01-31T13:43:31.008Z,17.90
2018-01-31T13:46:10.553Z,17.90
2018-01-31T13:48:50.271Z,17.80
2018-01-31T13:51:29.779Z,17.80
2018-01-31T13:54:10.111Z,17.80
2018-01-31T13:56:49.813Z,17.80
2018-01-31T13:59:29.416Z,17.80
2018-01-31T14:02:09.825Z,17.70
2018-01-31T14:04:49.423Z,17.70
2018-01-31T14:07:29.730Z,17.70
2018-01-31T14:10:09.307Z,17.70
2018-01-31T14:12:48.939Z,17.70
2018-01-31T14:15:28.432Z,17.70
2018-01-31T14:18:08.142Z,17.60
2018-01-31T14:20:48.618Z,17.60
2018-01-31T14:23:28.196Z,17.60
2018-01-31T14:26:07.810Z,17.60
2018-01-31T14:28:47.395Z,17.50
2018-01-31T14:31:27.012Z,17.60
2018-01-31T14:34:07.263Z,17.50
2018-01-31T14:36:34.578Z,17.50
2018-01-31T14:39:02.604Z,17.50
2018-01-31T14:41:29.876Z,17.50
2018-01-31T14:43:57.204Z,17.40
2018-01-31T14:46:24.443Z,17.40
2018-01-31T14:48:51.699Z,17.40
2018-01-31T14:51:18.969Z,17.40
2018-01-31T14:53:46.216Z,17.40
2018-01-31T14:56:13.479Z,17.40
2018-01-31T14:58:40.751Z,17.30
2018-01-31T15:01:08.023Z,17.30
2018-01-31T15:03:36.155Z,17.30
2018-01-31T15:06:03.424Z,17.30
2018-01-31T15:08:30.842Z,17.30
2018-01-31T15:10:58.113Z,17.30
2018-01-31T15:13:25.477Z,17.30
2018-01-31T15:15:52.778Z,17.20
2018-01-31T15:18:20.090Z,17.20
2018-01-31T15:20:47.337Z,17.20
2018-01-31T15:23:14.604Z,17.20
2018-01-31T15:25:44.472Z,17.10
2018-01-31T15:28:11.842Z,17.10
2018-01-31T15:30:39.134Z,17.10
2018-01-31T15:33:07.166Z,17.10
2018-01-31T15:35:34.435Z,17.10
2018-01-31T15:38:01.720Z,17.00
2018-01-31T15:40:29.748Z,16.90
2018-01-31T15:42:57.779Z,16.90
2018-01-31T15:45:25.013Z,16.90
2018-01-31T15:47:53.206Z,16.80
2018-01-31T15:50:20.779Z,16.80
2018-01-31T15:52:48.155Z,16.80
2018-01-31T15:55:15.433Z,16.80
2018-01-31T15:57:43.515Z,16.80
2018-01-31T16:00:18.804Z,16.70
2018-01-31T16:02:46.758Z,16.70
2018-01-31T16:05:14.075Z,16.70
2018-01-31T16:07:42.264Z,16.70
2018-01-31T16:10:10.325Z,16.70
2018-01-31T16:12:38.334Z,16.70
2018-01-31T16:15:05.583Z,16.70
2018-01-31T16:17:33.397Z,16.70
2018-01-31T16:20:13.113Z,16.70
2018-01-31T16:22:40.938Z,16.70
2018-01-31T16:25:08.881Z,16.70
2018-01-31T16:27:49.401Z,16.70
2018-01-31T16:30:23.091Z,16.60
2018-01-31T16:33:02.716Z,16.60
2018-01-31T16:35:30.552Z,16.60
2018-01-31T16:37:58.353Z,16.60
2018-01-31T16:40:26.263Z,16.70
2018-01-31T16:42:54.123Z,16.60
2018-01-31T16:45:22.156Z,16.50
2018-01-31T16:47:49.964Z,16.50
2018-01-31T16:50:17.877Z,16.50
2018-01-31T16:52:45.701Z,16.50
2018-01-31T16:55:13.518Z,16.40
2018-01-31T16:57:41.380Z,16.40
2018-01-31T17:00:09.243Z,16.40
2018-01-31T17:02:37.096Z,16.40
2018-01-31T17:05:05.698Z,16.40
2018-01-31T17:07:33.539Z,16.40
2018-01-31T17:10:02.112Z,16.40
2018-01-31T17:12:29.926Z,16.40
2018-01-31T17:14:57.764Z,16.40
2018-01-31T17:17:26.356Z,16.30
2018-01-31T17:19:54.224Z,16.30
2018-01-31T17:22:22.031Z,16.30
2018-01-31T17:24:49.948Z,16.30
2018-01-31T17:27:18.499Z,16.30
2018-01-31T17:29:46.363Z,16.30
2018-01-31T17:32:14.209Z,16.30
2018-01-31T17:34:42.031Z,16.40
2018-01-31T17:37:09.812Z,16.30
2018-01-31T17:39:37.738Z,16.30
2018-01-31T17:42:05.545Z,16.30
2018-01-31T17:44:33.454Z,16.30
2018-01-31T17:47:01.247Z,16.30
2018-01-31T17:49:29.908Z,16.30
2018-01-31T17:51:57.732Z,16.30
2018-01-31T19:47:24.395Z,15.80
2018-01-31T19:49:52.195Z,15.90
2018-01-31T19:52:20.743Z,15.90
2018-01-31T19:54:48.539Z,15.90
2018-01-31T19:57:17.150Z,16.00
2018-01-31T19:59:45.098Z,15.90
2018-01-31T20:02:12.965Z,16.00
2018-01-31T20:04:41.605Z,16.00
2018-01-31T20:07:09.420Z,16.00
2018-01-31T20:09:37.979Z,16.00
2018-01-31T20:12:05.822Z,16.00
2018-01-31T20:14:33.660Z,16.00
2018-01-31T20:17:01.476Z,15.90
2018-01-31T20:19:30.125Z,15.60
2018-01-31T20:21:57.923Z,15.60
2018-01-31T20:24:25.742Z,15.30
2018-01-31T20:26:53.569Z,15.10
2018-01-31T20:29:22.165Z,14.90
2018-01-31T20:31:50.014Z,14.90
2018-01-31T20:34:18.586Z,14.80
2018-01-31T20:36:47.169Z,14.90
2018-01-31T20:39:14.989Z,14.80
2018-01-31T20:41:42.850Z,14.90
2018-01-31T20:44:10.679Z,14.90
2018-01-31T20:46:39.235Z,15.00
2018-01-31T20:49:07.033Z,15.00
2018-01-31T20:51:35.775Z,15.00
2018-01-31T20:54:03.575Z,15.00
2018-01-31T20:56:32.195Z,14.60
2018-01-31T20:58:59.988Z,14.60
2018-01-31T21:01:27.852Z,14.40
2018-01-31T21:03:55.642Z,14.30
2018-01-31T21:06:23.496Z,14.20
2018-01-31T21:08:51.305Z,14.20
2018-01-31T21:11:19.144Z,14.20
2018-01-31T21:13:47.819Z,14.20
2018-01-31T21:16:17.793Z,14.20
2018-01-31T21:18:45.678Z,14.30
2018-01-31T21:21:13.897Z,14.40
2018-01-31T21:23:41.728Z,14.40
2018-01-31T21:26:09.597Z,14.50
2018-01-31T21:28:38.458Z,14.60
2018-01-31T21:31:30.365Z,14.60
2018-01-31T21:33:58.138Z,14.60
2018-01-31T21:36:26.015Z,14.70
2018-01-31T21:38:53.899Z,14.70
2018-01-31T21:41:22.951Z,14.80
2018-01-31T21:43:52.147Z,14.80
2018-01-31T21:46:21.227Z,14.90
2018-01-31T21:49:23.390Z,14.90
2018-01-31T21:51:51.221Z,15.00
2018-01-31T22:00:38.657Z,15.10
2018-01-31T22:03:38.524Z,15.10
2018-01-31T22:06:08.933Z,15.10
2018-01-31T22:08:36.780Z,15.00
2018-01-31T22:11:04.572Z,14.90
2018-01-31T22:13:32.531Z,14.80
2018-01-31T22:16:00.399Z,14.60
2018-01-31T22:18:28.199Z,14.40
2018-01-31T22:20:56.783Z,14.10
2018-01-31T22:23:24.608Z,14.10
2018-01-31T22:25:52.466Z,14.10
2018-01-31T22:28:20.292Z,14.00
2018-01-31T22:30:48.093Z,14.00
2018-01-31T22:33:15.932Z,14.00
2018-01-31T22:35:43.747Z,14.00
2018-01-31T22:38:11.564Z,13.90
2018-01-31T22:40:39.394Z,14.00
2018-01-31T22:43:07.961Z,14.00
2018-01-31T22:45:35.752Z,14.00
2018-01-31T22:48:04.386Z,14.10
2018-01-31T22:50:32.217Z,14.10
2018-01-31T22:53:00.017Z,14.10
2018-01-31T22:55:27.799Z,14.20
2018-01-31T22:57:55.667Z,14.20
2018-01-31T23:00:23.585Z,14.30
2018-01-31T23:02:51.432Z,14.30
2018-01-31T23:05:20.054Z,14.40
2018-01-31T23:07:47.930Z,14.40
2018-01-31T23:10:15.739Z,14.40
2018-01-31T23:12:49.964Z,14.50
2018-01-31T23:15:18.556Z,14.50
2018-01-31T23:17:52.818Z,14.50
2018-01-31T23:20:20.664Z,14.50
2018-01-31T23:22:48.518Z,14.60
2018-01-31T23:25:16.405Z,14.60
2018-01-31T23:27:44.244Z,14.60
2018-01-31T23:30:12.036Z,14.60
2018-01-31T23:32:39.831Z,14.70
2018-01-31T23:35:07.649Z,14.70
2018-01-31T23:37:35.528Z,14.70
2018-01-31T23:40:03.385Z,14.80
2018-01-31T23:42:31.286Z,14.80
2018-01-31T23:44:59.101Z,14.80
2018-01-31T23:47:26.892Z,14.80
2018-01-31T23:49:54.741Z,14.90
2018-01-31T23:52:22.595Z,14.90
2018-01-31T23:54:50.411Z,14.90
2018-01-31T23:57:18.209Z,14.90
2018-01-31T23:59:46.791Z,15.00
